Crew | Aerofun Virtual



 METAR AND TAF INFORMATION
METAR FOR LEVT
ADDS - METARS form results

(1957 UTC 27 February 2020)
Data provider http://aviationweather.gov/metar/data/
 
METAR text: LEVT 271930Z 02003KT 340V060 9999 SCT025 SCT065 10/08 Q1022
Conditions at: LEVT (VITORIA , ES) observed 1930 UTC 27 February 2020
Temperature: 10.0°C (50°F)
Dewpoint: 8.0°C (46°F) [RH = 87%]
Pressure (altimeter): 30.18 inches Hg (1022.0 mb)
Winds: from the NNE (20 degrees) at 3 MPH (3 knots; 1.5 m/s)
Visibility: 6 or more miles (10+ km)
Ceiling: at least 12,000 feet AGL
Clouds: scattered clouds at 2500 feet AGL
scattered clouds at 6500 feet AGL
Weather: no significant weather observed at this time

METAR text: LEVT 271900Z VRB01KT 9000 FEW030 SCT065 10/08 Q1022
Conditions at: LEVT (VITORIA , ES) observed 1900 UTC 27 February 2020
Temperature: 10.0°C (50°F)
Dewpoint: 8.0°C (46°F) [RH = 87%]
Pressure (altimeter): 30.18 inches Hg (1022.0 mb)
Winds: variable direction winds at 1 MPH (1 knots; 0.5 m/s)
Visibility: 6 miles ( 9 km)
Ceiling: at least 12,000 feet AGL
Clouds: few clouds at 3000 feet AGL
scattered clouds at 6500 feet AGL
Weather: no significant weather observed at this time

Forecast for: LEVT (VITORIA , ES)
Text: TAF LEVT 271700Z 2718/2818 32010KT 9999 SCT050 TX18/2816Z TN01/2806Z
Forecast period: 1800 to 2000 UTC 27 February 2020
Forecast type: FROM: standard forecast or significant change
Winds: from the NW (320 degrees) at 12 MPH (10 knots; 5.1 m/s)
Visibility: 6 or more miles 10+ km)
Ceiling: at least 12,000 feet AGL
Clouds: scattered clouds at 5000 feet AGL
Weather: no significant weather forecast for this period
Text: BECMG 2720/2722 25009KT
Forecast period: 2000 UTC 27 February 2020 to 1800 UTC 28 February 2020
Forecast type: BECOMING: Conditions expected to become as follows by 2200 UTC 27 February 2020
Winds: from the WSW (250 degrees) at 10 MPH (9 knots; 4.6 m/s)
Visibility: 6 or more miles 10+ km)
Ceiling: at least 12,000 feet AGL
Clouds: scattered clouds at 5000 feet AGL
Weather: no significant weather forecast for this period
Text: PROB30
Forecast period: 0300 to 0600 UTC 28 February 2020
Forecast type: TEMPORARY: The following changes expected for less than half the time period
Visibility: 0.22 miles (0.35 km)
Ceiling: indefinite ceiling with vertical visibility of 100 feet AGL
Clouds: obscured sky
Weather: FG  (fog)

 AIRPORT MAP

 RUNWAY INFORMATION
Runway 04 Runway length 11483 ft Runway width 148 ft
Runway elevation 1651 ft Runway displaced threshold 0 ft Runway heading 36
Runway 22 Runway length 11483 ft Runway width 148 ft
Runway elevation 1682 ft Runway displaced threshold 0 ft Runway heading 216

 AIRPORT FREQUENCIES
Type GND Name GND Frequency 121.8 MHZ
Type TWR Name TWR Frequency 118.45 MHZ

 AIRPORT NEAR NAVIGATION AIDS
Type VOR-DME Name Vitoria Frequency 112900 KHZ
Type VOR-DME Name Vitoria Frequency 116600 KHZ